Impacts TAF Board
For situational awareness. Not to be used for flight planning purposes.
IDs:

KCOE - Coeur DAlene Arpt, ID, US

Issued at 0520 UTC 22 Oct 2021
Updated at 0540 UTC 22 Oct 2021
Potential Impact None Slight Moderate High
Time0456Z 22/06Z 22/07Z 22/08Z 22/09Z 22/10Z 22/11Z 22/12Z 22/13Z 22/14Z 22/15Z 22/16Z 22/17Z 22/18Z>>
Type OBS PRVL PRVL PRVL PRVL PRVL PRVL PRVL PRVL PRVL PRVL PRVL PRVL PRVL
VIS 10 >6 >6 >6 >6 >6 >6 >6 >6 >6 >6 >6 >6 >6
CIG -- 250 250 250 100 100 100 100 100 100 100 80 80 80
Cover CLR BKN BKN BKN BKN BKN BKN BKN BKN BKN BKN OVC OVC OVC
FltCat VFR VFR VFR VFR VFR VFR VFR VFR VFR VFR VFR VFR VFR VFR
WX -- -- -- -- VCSH VCSH VCSH VCSH VCSH VCSH VCSH -SHRA -SHRA -SHRA
WDir 30 20 20 20 30 30 30 30 30 30 30 240 240 240
WSpd 8 13 13 13 12 12 12 12 12 12 12 6 6 6
WGst -- -- -- -- -- -- -- -- -- -- -- -- -- --
Raw TAF
KCOE 220520Z 2206/2306 02013KT P6SM SCT140 BKN250
  FM220900 03012KT P6SM VCSH SCT060 BKN100
  FM221600 24006KT P6SM -SHRA SCT050 OVC080
  FM221900 VRB05KT P6SM -RA OVC025
  FM222200 VRB05KT 4SM -RA BR OVC015


Raw METAR
KCOE 220456Z AUTO 03008KT 10SM CLR 10/06 A2993 RMK AO2 SLP155 T01000056 PNO $
KCOE 220356Z AUTO 03009KT 10SM CLR 09/06 A2994 RMK AO2 SLP161 T00890056 PNO $
KCOE 220256Z AUTO 02009KT 10SM CLR 11/06 A2996 RMK AO2 SLP168 6//// T01060056 56012 PNO $

METAR Board
Radar Display
Forecast Discussion
For situational awareness. Not to be used for flight planning purposes.